Record high temperature 23.2°C Record low temperature 0.0°C Record high gust 25.3 mph Record high average 15.0 mph Record daily rain 5.8 mm Record low windchill 0.0°C Record high barometer 1027.9 hPa Record low barometer 1001.0 hPa
Daily high pressure 1021.4 mb Daily low pressure 1020.7 mb Daily low windchill 9.3°C Daily high heat index 11.8°C Daily high gust speed 6.0 mph NW Daily high average speed 2.0 mph NW
Forecast: increasing clouds with little temp. change. precipitation possible within 24 to 48 hrs.
Weather Data
LAST READING AT TIME: 04:20 DATE: 26 May 2015, time of next update: 04:25
Current WeatherNight time/Dry Current Temperature 9.4°C (48.9°F), Apparent temp 9.1°C
Maximum Temperature (since midnight)11.8°C at: 00:00 Minimum Temperature (since midnight)9.3°C at: 04:19
Average windspeed (ten minute)0.1 mph Wind Direction (ten minute)WNW (299°)
Windchill Temperature 9.4°C Maximum Gust (last hour)5.0 mph at: 03:26
Maximum Gust (since midnight)6.0 mph at: 02:35 Maximum 1 minute average (since midnight)2.0 mph at: 03:03
Rainfall (last hour)0.0 mm Rainfall (since midnight)0.0 mm (0.00 in.)---
Rainfall This month 19.0 mm (0.75 in.) Rainfall To date this year 144.4 mm (5.69 in.)
Maximum rain per minute (last hour)0.0 mm/min Maximum rain per hour (last 6 hours)0.0 mm/hour
Yesterdays rainfall 0.0 mm DewPoint 7.5°C (Wet Bulb :8.5°C )
Humidity 88 %, Humidex 9.6°C Barometer corrected to msl1021.3 mb
Pressure change 0.1 mb (last hour) Trend (last hour)STEADY
Pressure change (last 12 hours)+2.5 mb Pressure change (last 6 hours)+0.7 mb
Current Study Temp. 20.5°C
Current Study Hum. 51%
Current solar 0 W/Mē Current UV0.0
Maximum solar (since midnight) 0 W/Mē Maximum UV (since midnight)0.0
Current 00:00 hours of sunshine today, current sky: Night time/Dry
Sunshine hours for the year: 68:22 hrs Sunshine hours for the month: 68:22 hrs
Current evapotranspiration rate 0.4 mm per day. Yesterday's reading 2.5

This page is updated from recent data collected by a DAVIS VANTAGE PRO weather station Use the Reload or Refresh facility on your browser to retrieve the latest data.


Animated web cam image


Weather report/warning/Metars

London City Airport, United Kingdom (EGLC) 51-30N 000-30W
May 25, 2015 - 10:50 PM EDT / 2015.05.26 0250 UTC
Wind: from the WNW (300 degrees) at 7 MPH (6 KT):0
Visibility: greater than 7 mile(s):0
Temperature: 53 F (12 C)
Dew Point: 44 F (7 C)
Relative Humidity: 71%
Pressure (altimeter): 30.15 in. Hg (1021 hPa)
ob: EGLC 260250Z AUTO 30006KT 9999 NCD 12/07 Q1021
cycle: 3
Biggin Hill , United Kingdom (EGKB) 51-19N 000-02E
May 25, 2015 - 02:20 PM EDT / 2015.05.25 1820 UTC
Wind: from the NNW (340 degrees) at 6 MPH (5 KT) (direction variable):0
Visibility: greater than 7 mile(s):0
Sky conditions: mostly cloudy
Temperature: 55 F (13 C)
Dew Point: 42 F (6 C)
Relative Humidity: 62%
Pressure (altimeter): 30.09 in. Hg (1019 hPa)
ob: EGKB 251820Z 34005KT 300V010 9999 BKN035 13/06 Q1019 
cycle: 18
London / Heathrow Airport, United Kingdom (EGLL) 51-29N 000-27W 0M
May 25, 2015 - 10:50 PM EDT / 2015.05.26 0250 UTC
Wind: from the WNW (290 degrees) at 7 MPH (6 KT):0
Visibility: greater than 7 mile(s):0
Temperature: 50 F (10 C)
Dew Point: 44 F (7 C)
Relative Humidity: 81%
Pressure (altimeter): 30.18 in. Hg (1022 hPa)
ob: EGLL 260250Z 29006KT CAVOK 10/07 Q1022
cycle: 3
London / Gatwick Airport, United Kingdom (EGKK) 51-09N 000-11W 0M
May 25, 2015 - 10:50 PM EDT / 2015.05.26 0250 UTC
Wind: from the W (280 degrees) at 5 MPH (4 KT):0
Visibility: greater than 7 mile(s):0
Temperature: 46 F (8 C)
Dew Point: 42 F (6 C)
Relative Humidity: 87%
Pressure (altimeter): 30.18 in. Hg (1022 hPa)
ob: EGKK 260250Z 28004KT CAVOK 08/06 Q1022
cycle: 3
Middle Wallop, United Kingdom (EGVP) 51-09N 001-34W 0M
May 25, 2015 - 10:50 PM EDT / 2015.05.26 0250 UTC
Wind: from the WNW (290 degrees) at 3 MPH (3 KT):0
Visibility: greater than 7 mile(s):0
Sky conditions: overcast
Temperature: 48 F (9 C)
Dew Point: 44 F (7 C)
Relative Humidity: 87%
Pressure (altimeter): 30.18 in. Hg (1022 hPa)
ob: EGVP 260250Z AUTO 29003KT 9999 // OVC035/// 09/07 Q1022
cycle: 3

Date: 26/5/2015
Sunrise at:
04:57 am

Sunset at:
08:56 pm

Moonrise at:
12:17 pm 25/05/15

Moonset at:
01:20 am 25/05/15

First Quarter  25 May 2015
Full moon  2 June 2015
Last Quarter9 June 2015
New moon 16 June 2015
Moon age: 7 days,14 hours,22 minutes,52%
Hours of possible daylight today was 16:04:00



The data is logged at two minute intervals, but there is data recorded every minute.

Use the RELOAD facility on your browser to retrieve the latest data.

Click here for a daily update of the averages/extremes to date for the month
Created by "Weather Display" software version 10.37R at this start time/date 07:13:45 25/05/2015